createdAt,value
2019-05-20T00:00:38.416Z,73.18
2019-05-20T00:01:38.405Z,73.18
2019-05-20T00:02:38.406Z,73.21
2019-05-20T00:03:38.408Z,73.18
2019-05-20T00:04:38.377Z,73.27
2019-05-20T00:05:38.390Z,73.27
2019-05-20T00:06:38.377Z,72.87
2019-05-20T00:07:38.337Z,72.67
2019-05-20T00:08:38.321Z,73.18
2019-05-20T00:09:38.342Z,73.47
2019-05-20T00:10:38.304Z,74.08
2019-05-20T00:11:38.291Z,74.01
2019-05-20T00:12:38.312Z,73.88
2019-05-20T00:13:38.283Z,73.98
2019-05-20T00:14:38.297Z,73.68
2019-05-20T00:15:38.252Z,73.81
2019-05-20T00:16:38.234Z,74.11
2019-05-20T00:17:38.243Z,74.11
2019-05-20T00:18:38.218Z,74.11
2019-05-20T00:19:38.266Z,73.91
2019-05-20T00:20:38.194Z,73.71
2019-05-20T00:21:38.184Z,73.71
2019-05-20T00:22:38.182Z,74.41
2019-05-20T00:23:38.158Z,73.81
2019-05-20T00:24:38.187Z,73.51
2019-05-20T00:25:38.145Z,74.01
2019-05-20T00:26:38.132Z,73.91
2019-05-20T00:27:38.123Z,74.32
2019-05-20T00:28:38.392Z,74.52
2019-05-20T00:29:38.096Z,74.52
2019-05-20T00:30:38.086Z,74.41
2019-05-20T00:31:38.075Z,74.41
2019-05-20T00:32:41.620Z,74.11
2019-05-20T00:33:38.061Z,74.32
2019-05-20T00:34:38.078Z,74.52
2019-05-20T00:35:38.032Z,74.01
2019-05-20T00:36:38.030Z,74.21
2019-05-20T00:37:38.023Z,74.52
2019-05-20T00:38:38.040Z,74.01
2019-05-20T00:39:37.994Z,74.45
2019-05-20T00:40:37.977Z,74.21
2019-05-20T00:41:37.967Z,74.41
2019-05-20T00:42:37.957Z,74.35
2019-05-20T00:43:37.966Z,74.55
2019-05-20T00:44:37.977Z,74.25
2019-05-20T00:45:37.932Z,74.15
2019-05-20T00:46:37.920Z,74.25
2019-05-20T00:47:37.921Z,74.55
2019-05-20T00:48:37.904Z,74.45
2019-05-20T00:49:37.938Z,74.25
2019-05-20T00:50:37.878Z,74.45
2019-05-20T00:51:37.868Z,74.35
2019-05-20T00:52:37.850Z,74.29
2019-05-20T00:53:37.841Z,74.85
2019-05-20T00:54:37.915Z,74.75
2019-05-20T00:55:37.817Z,74.85
2019-05-20T00:56:37.811Z,74.65
2019-05-20T00:57:37.800Z,74.85
2019-05-20T00:58:37.792Z,74.85
2019-05-20T00:59:38.022Z,74.75
2019-05-20T01:00:37.763Z,74.55
2019-05-20T01:01:37.751Z,74.85
2019-05-20T01:02:37.740Z,74.95
2019-05-20T01:03:37.759Z,74.85
2019-05-20T01:04:37.727Z,74.75
2019-05-20T01:05:37.769Z,74.75
2019-05-20T01:06:37.701Z,74.65
2019-05-20T01:07:37.763Z,74.55
2019-05-20T01:08:37.743Z,74.35
2019-05-20T01:09:37.682Z,74.85
2019-05-20T01:10:37.744Z,74.89
2019-05-20T01:11:37.803Z,74.35
2019-05-20T01:12:37.663Z,74.69
2019-05-20T01:13:37.719Z,75.09
2019-05-20T01:14:38.360Z,74.89
2019-05-20T01:15:37.606Z,75.19
2019-05-20T01:16:38.690Z,74.58
2019-05-20T01:17:37.691Z,74.69
2019-05-20T01:18:37.616Z,75.09
2019-05-20T01:19:37.615Z,75.39
2019-05-20T01:20:37.590Z,75.29
2019-05-20T01:21:37.658Z,75.39
2019-05-20T01:22:37.648Z,75.29
2019-05-20T01:23:38.271Z,75.19
2019-05-20T01:24:37.525Z,75.09
2019-05-20T01:25:37.545Z,75.29
2019-05-20T01:26:37.518Z,74.69
2019-05-20T01:27:37.480Z,74.89
2019-05-20T01:28:37.485Z,74.79
2019-05-20T01:29:37.471Z,74.89
2019-05-20T01:30:37.447Z,74.79
2019-05-20T01:31:37.439Z,74.79
2019-05-20T01:32:37.456Z,74.89
2019-05-20T01:33:37.410Z,75.09
2019-05-20T01:34:37.483Z,75.09
2019-05-20T01:35:37.385Z,74.89
2019-05-20T01:36:37.384Z,75.09
2019-05-20T01:37:37.402Z,74.99
2019-05-20T01:38:37.360Z,75.39
2019-05-20T01:39:37.345Z,74.79
2019-05-20T01:40:37.372Z,75.09
2019-05-20T01:41:37.328Z,75.19
2019-05-20T01:42:37.350Z,75.09
2019-05-20T01:43:37.308Z,75.29
2019-05-20T01:44:37.344Z,75.19
2019-05-20T01:45:37.285Z,75.59
2019-05-20T01:46:37.310Z,75.29
2019-05-20T01:47:37.298Z,75.39
2019-05-20T01:48:37.318Z,75.29
2019-05-20T01:49:37.263Z,75.29
2019-05-20T01:50:37.238Z,75.29
2019-05-20T01:51:37.291Z,75.49
2019-05-20T01:52:37.337Z,75.39
2019-05-20T01:53:37.223Z,75.09
2019-05-20T01:54:37.235Z,75.09
2019-05-20T01:55:37.201Z,74.99
2019-05-20T01:56:37.206Z,75.39
2019-05-20T01:57:37.217Z,75.09
2019-05-20T01:58:39.547Z,75.39
2019-05-20T01:59:37.231Z,75.49
2019-05-20T02:00:37.265Z,75.29
2019-05-20T02:01:37.275Z,75.19
2019-05-20T02:02:37.205Z,75.29
2019-05-20T02:03:37.337Z,75.29
2019-05-20T02:04:37.092Z,75.29
2019-05-20T02:05:37.071Z,75.33
2019-05-20T02:06:37.054Z,75.39
2019-05-20T02:07:37.181Z,75.53
2019-05-20T02:08:37.069Z,76.54
2019-05-20T02:09:37.387Z,75.59
2019-05-20T02:10:37.149Z,75.49
2019-05-20T02:11:37.041Z,75.63
2019-05-20T02:12:36.995Z,75.49
2019-05-20T02:13:36.982Z,76.40
2019-05-20T02:14:36.995Z,76.34
2019-05-20T02:15:37.053Z,76.20
2019-05-20T02:16:36.944Z,76.34
2019-05-20T02:17:36.943Z,76.34
2019-05-20T02:18:36.924Z,76.03
2019-05-20T02:19:36.949Z,75.43
2019-05-20T02:20:36.907Z,75.93
2019-05-20T02:21:36.898Z,76.14
2019-05-20T02:22:36.882Z,76.23
2019-05-20T02:23:36.873Z,76.34
2019-05-20T02:24:36.889Z,75.93
2019-05-20T02:25:36.849Z,76.34
2019-05-20T02:26:36.840Z,76.34
2019-05-20T02:27:36.826Z,76.34
2019-05-20T02:28:36.812Z,76.34
2019-05-20T02:29:36.834Z,76.34
2019-05-20T02:30:36.790Z,75.73
2019-05-20T02:31:36.776Z,75.93
2019-05-20T02:32:36.781Z,75.93
2019-05-20T02:33:51.130Z,76.03
2019-05-20T02:34:37.782Z,75.93
2019-05-20T02:35:36.764Z,76.03
2019-05-20T02:36:36.730Z,76.03
2019-05-20T02:37:36.730Z,75.93
2019-05-20T02:38:36.699Z,76.57
2019-05-20T02:39:36.727Z,76.14
2019-05-20T02:40:36.689Z,76.74
2019-05-20T02:41:36.677Z,76.84
2019-05-20T02:42:36.668Z,76.87
2019-05-20T02:43:36.668Z,75.93
2019-05-20T02:44:36.664Z,76.84
2019-05-20T02:45:36.678Z,76.74
2019-05-20T02:46:36.621Z,76.57
2019-05-20T02:47:36.610Z,76.54
2019-05-20T02:48:36.596Z,76.57
2019-05-20T02:49:36.633Z,75.83
2019-05-20T02:50:36.573Z,76.47
2019-05-20T02:51:36.563Z,76.87
2019-05-20T02:52:36.558Z,76.77
2019-05-20T02:53:36.555Z,76.17
2019-05-20T02:54:36.583Z,76.27
2019-05-20T02:55:36.567Z,76.57
2019-05-20T02:56:36.509Z,76.27
2019-05-20T02:57:36.509Z,76.47
2019-05-20T02:58:36.492Z,76.37
2019-05-20T02:59:36.483Z,76.67
2019-05-20T03:00:36.511Z,76.27
2019-05-20T03:01:36.456Z,76.77
2019-05-20T03:02:36.443Z,76.87
2019-05-20T03:03:36.438Z,76.57
2019-05-20T03:04:36.463Z,76.77
2019-05-20T03:05:36.415Z,76.77
2019-05-20T03:06:36.418Z,76.77
2019-05-20T03:07:36.404Z,76.87
2019-05-20T03:08:36.377Z,76.57
2019-05-20T03:09:36.415Z,76.57
2019-05-20T03:10:36.358Z,76.81
2019-05-20T03:11:36.350Z,76.61
2019-05-20T03:12:36.346Z,76.77
2019-05-20T03:13:36.337Z,76.51
2019-05-20T03:14:36.338Z,76.91
2019-05-20T03:15:36.303Z,76.87
2019-05-20T03:16:36.307Z,76.81
2019-05-20T03:17:36.286Z,76.97
2019-05-20T03:18:36.281Z,76.77
2019-05-20T03:19:36.297Z,76.87
2019-05-20T03:20:36.250Z,76.40
2019-05-20T03:21:36.238Z,77.08
2019-05-20T03:22:36.227Z,76.71
2019-05-20T03:23:36.220Z,76.31
2019-05-20T03:24:36.234Z,76.40
2019-05-20T03:25:36.203Z,77.21
2019-05-20T03:26:36.192Z,76.40
2019-05-20T03:27:36.181Z,76.91
2019-05-20T03:28:36.166Z,76.91
2019-05-20T03:29:36.183Z,77.01
2019-05-20T03:30:36.159Z,76.81
2019-05-20T03:31:36.138Z,76.67
2019-05-20T03:32:36.121Z,77.21
2019-05-20T03:33:36.139Z,76.91
2019-05-20T03:34:47.670Z,77.42
2019-05-20T03:35:37.090Z,77.31
2019-05-20T03:36:36.087Z,77.01
2019-05-20T03:37:36.073Z,77.11
2019-05-20T03:38:36.060Z,77.31
2019-05-20T03:39:36.054Z,77.01
2019-05-20T03:40:36.068Z,77.11
2019-05-20T03:41:36.026Z,77.21
2019-05-20T03:42:36.013Z,77.31
2019-05-20T03:43:36.005Z,77.01
2019-05-20T03:44:36.021Z,76.81
2019-05-20T03:45:35.990Z,76.91
2019-05-20T03:46:35.976Z,77.62
2019-05-20T03:47:36.028Z,77.11
2019-05-20T03:48:35.954Z,76.61
2019-05-20T03:49:35.986Z,76.71
2019-05-20T03:50:35.944Z,77.62
2019-05-20T03:51:35.943Z,77.51
2019-05-20T03:52:35.907Z,77.31
2019-05-20T03:53:35.950Z,77.62
2019-05-20T03:54:36.328Z,77.42
2019-05-20T03:55:35.873Z,77.42
2019-05-20T03:56:35.867Z,77.21
2019-05-20T03:57:35.857Z,77.42
2019-05-20T03:58:35.853Z,77.62
2019-05-20T03:59:35.879Z,77.72
2019-05-20T04:00:35.818Z,77.72
2019-05-20T04:01:35.808Z,77.82
2019-05-20T04:02:35.806Z,77.92
2019-05-20T04:03:35.789Z,77.42
2019-05-20T04:04:35.777Z,77.42
2019-05-20T04:05:35.812Z,77.51
2019-05-20T04:06:35.756Z,78.22
2019-05-20T04:07:35.741Z,78.02
2019-05-20T04:08:35.736Z,77.82
2019-05-20T04:09:35.731Z,78.12
2019-05-20T04:10:35.766Z,77.51
2019-05-20T04:11:35.717Z,77.42
2019-05-20T04:12:35.685Z,77.62
2019-05-20T04:13:35.684Z,77.62
2019-05-20T04:14:35.916Z,77.72
2019-05-20T04:15:35.659Z,77.82
2019-05-20T04:16:35.649Z,77.62
2019-05-20T04:17:35.640Z,77.11
2019-05-20T04:18:35.635Z,77.62
2019-05-20T04:19:35.663Z,77.62
2019-05-20T04:20:35.651Z,77.62
2019-05-20T04:21:35.597Z,77.31
2019-05-20T04:22:35.584Z,77.17
2019-05-20T04:23:35.759Z,77.21
2019-05-20T04:24:35.562Z,76.87
2019-05-20T04:25:35.594Z,77.08
2019-05-20T04:26:35.560Z,77.42
2019-05-20T04:27:35.529Z,76.97
2019-05-20T04:28:35.570Z,76.87
2019-05-20T04:29:35.536Z,77.17
2019-05-20T04:30:35.574Z,76.57
2019-05-20T04:31:35.520Z,76.67
2019-05-20T04:32:35.502Z,76.97
2019-05-20T04:33:35.513Z,76.77
2019-05-20T04:34:35.484Z,76.47
2019-05-20T04:35:35.615Z,76.97
2019-05-20T04:36:35.448Z,76.27
2019-05-20T04:37:35.426Z,76.67
2019-05-20T04:38:35.414Z,76.67
2019-05-20T04:39:35.405Z,76.57
2019-05-20T04:40:35.415Z,76.57
2019-05-20T04:41:35.889Z,76.47
2019-05-20T04:42:35.405Z,76.37
2019-05-20T04:43:35.408Z,76.57
2019-05-20T04:44:35.339Z,76.47
2019-05-20T04:45:35.371Z,76.37
2019-05-20T04:46:35.319Z,76.57
2019-05-20T04:47:35.321Z,76.57
2019-05-20T04:48:35.390Z,76.97
2019-05-20T04:49:35.304Z,76.07
2019-05-20T04:50:35.403Z,76.37
2019-05-20T04:51:35.299Z,76.47
2019-05-20T04:52:35.321Z,76.27
2019-05-20T04:53:35.259Z,75.96
2019-05-20T04:54:35.327Z,76.17
2019-05-20T04:55:35.246Z,75.87
2019-05-20T04:56:35.214Z,75.96
2019-05-20T04:57:43.863Z,75.73
2019-05-20T04:58:35.230Z,76.27
2019-05-20T04:59:35.182Z,75.83
2019-05-20T05:00:35.193Z,76.03
2019-05-20T05:01:35.161Z,76.23
2019-05-20T05:02:35.143Z,76.54
2019-05-20T05:03:35.182Z,76.54
2019-05-20T05:04:35.184Z,75.13
2019-05-20T05:05:37.689Z,75.53
2019-05-20T05:06:35.105Z,75.33
2019-05-20T05:07:35.102Z,75.83
2019-05-20T05:08:35.100Z,76.54
2019-05-20T05:09:35.071Z,75.83
2019-05-20T05:10:35.118Z,75.93
2019-05-20T05:11:35.052Z,75.93
2019-05-20T05:12:35.041Z,75.93
2019-05-20T05:13:35.123Z,76.03
2019-05-20T05:14:35.075Z,75.93
2019-05-20T05:15:35.117Z,76.34
2019-05-20T05:16:35.052Z,75.53
2019-05-20T05:17:35.048Z,75.23
2019-05-20T05:18:35.002Z,75.29
2019-05-20T05:19:34.969Z,74.69
2019-05-20T05:20:35.048Z,74.79
2019-05-20T05:21:35.263Z,74.89
2019-05-20T05:22:35.013Z,74.58
2019-05-20T05:23:35.835Z,73.78
2019-05-20T05:24:34.973Z,74.49
2019-05-20T05:25:35.010Z,74.38
2019-05-20T05:26:34.962Z,74.45
2019-05-20T05:27:34.932Z,74.25
2019-05-20T05:28:34.881Z,73.95
2019-05-20T05:29:34.861Z,74.45
2019-05-20T05:30:34.873Z,74.55
2019-05-20T05:31:34.840Z,74.15
2019-05-20T05:32:34.831Z,74.58
2019-05-20T05:33:34.819Z,73.18
2019-05-20T05:34:34.884Z,72.97
2019-05-20T05:35:34.813Z,72.77
2019-05-20T05:36:34.786Z,73.24
2019-05-20T05:37:34.780Z,73.14
2019-05-20T05:38:34.894Z,73.14
2019-05-20T05:39:34.752Z,72.64
2019-05-20T05:40:34.760Z,72.44
2019-05-20T05:41:34.727Z,72.41
2019-05-20T05:42:34.855Z,72.94
2019-05-20T05:43:34.759Z,73.24
2019-05-20T05:44:34.876Z,72.91
2019-05-20T05:45:34.899Z,72.54
2019-05-20T05:46:34.675Z,72.03
2019-05-20T05:47:34.664Z,72.74
2019-05-20T05:48:34.653Z,72.10
2019-05-20T05:49:34.642Z,72.30
2019-05-20T05:50:34.635Z,72.81
2019-05-20T05:51:34.667Z,71.80
2019-05-20T05:52:34.615Z,71.60
2019-05-20T05:53:34.597Z,72.20
2019-05-20T05:54:34.599Z,72.27
2019-05-20T05:55:34.584Z,71.67
2019-05-20T05:56:34.597Z,71.26
2019-05-20T05:57:34.565Z,70.86
2019-05-20T05:58:34.548Z,70.93
2019-05-20T05:59:34.534Z,71.06
2019-05-20T06:00:34.524Z,70.46
2019-05-20T06:01:34.564Z,70.93
2019-05-20T06:02:34.665Z,70.63
2019-05-20T06:03:34.523Z,70.43
2019-05-20T06:04:34.484Z,70.93
2019-05-20T06:05:34.476Z,70.83
2019-05-20T06:06:34.493Z,70.53
2019-05-20T06:07:34.446Z,71.43
2019-05-20T06:08:34.441Z,71.33
2019-05-20T06:09:34.430Z,70.53
2019-05-20T06:10:35.827Z,70.83
2019-05-20T06:11:34.426Z,70.83
2019-05-20T06:12:34.395Z,70.83
2019-05-20T06:13:34.386Z,70.73
2019-05-20T06:14:34.381Z,70.73
2019-05-20T06:15:34.366Z,71.03
2019-05-20T06:16:36.846Z,70.32
2019-05-20T06:17:34.345Z,70.63
2019-05-20T06:18:34.332Z,70.43
2019-05-20T06:19:34.318Z,70.32
2019-05-20T06:20:34.309Z,70.03
2019-05-20T06:21:34.329Z,69.59
2019-05-20T06:22:34.291Z,69.99
2019-05-20T06:23:34.284Z,69.39
2019-05-20T06:24:34.271Z,69.49
2019-05-20T06:25:34.256Z,69.59
2019-05-20T06:26:34.283Z,69.06
2019-05-20T06:27:34.239Z,69.06
2019-05-20T06:28:34.231Z,68.65
2019-05-20T06:29:34.219Z,68.45
2019-05-20T06:30:34.205Z,68.42
2019-05-20T06:31:34.222Z,68.42
2019-05-20T06:32:34.185Z,67.72
2019-05-20T06:33:34.167Z,68.52
2019-05-20T06:34:34.545Z,68.32
2019-05-20T06:35:34.154Z,68.32
2019-05-20T06:36:34.173Z,68.02
2019-05-20T06:37:34.129Z,67.92
2019-05-20T06:38:34.119Z,68.12
2019-05-20T06:39:34.126Z,67.99
2019-05-20T06:40:34.103Z,67.69
2019-05-20T06:41:34.109Z,67.38
2019-05-20T06:42:34.075Z,67.79
2019-05-20T06:43:34.100Z,68.19
2019-05-20T06:44:34.060Z,68.08
2019-05-20T06:45:34.043Z,67.76
2019-05-20T06:46:34.401Z,67.45
2019-05-20T06:47:34.025Z,66.75
2019-05-20T06:48:34.017Z,66.15
2019-05-20T06:49:34.016Z,65.92
2019-05-20T06:50:33.988Z,65.92
2019-05-20T06:51:34.050Z,66.09
2019-05-20T06:52:36.177Z,65.59
2019-05-20T06:53:33.963Z,65.28
2019-05-20T06:54:33.955Z,65.39
2019-05-20T06:55:33.943Z,65.75
2019-05-20T06:56:33.966Z,65.45
2019-05-20T06:57:33.912Z,63.85
2019-05-20T06:58:33.914Z,64.22
2019-05-20T06:59:33.899Z,64.12
2019-05-20T07:00:33.889Z,63.32
2019-05-20T07:01:33.897Z,64.29
2019-05-20T07:02:33.863Z,62.99
2019-05-20T07:03:33.852Z,63.59
2019-05-20T07:04:33.839Z,63.49
2019-05-20T07:05:34.049Z,62.46
2019-05-20T07:06:45.391Z,61.16
2019-05-20T07:07:34.809Z,62.37
2019-05-20T07:08:33.807Z,61.46
2019-05-20T07:09:33.794Z,61.54
2019-05-20T07:10:33.776Z,61.33
2019-05-20T07:11:33.784Z,61.63
2019-05-20T07:12:41.036Z,61.24
2019-05-20T07:13:34.747Z,60.83
2019-05-20T07:14:33.769Z,60.41
2019-05-20T07:15:33.723Z,60.17
2019-05-20T07:16:33.826Z,59.15
2019-05-20T07:17:33.722Z,58.07
2019-05-20T07:18:33.701Z,55.77
2019-05-20T07:19:33.694Z,52.69
2019-05-20T07:20:33.677Z,51.07
2019-05-20T07:21:34.099Z,46.44
2019-05-20T07:22:33.964Z,44.55
2019-05-20T07:23:33.636Z,43.18
2019-05-20T07:24:33.626Z,41.55
2019-05-20T07:25:33.613Z,40.61
2019-05-20T07:26:33.645Z,38.67
2019-05-20T07:27:33.613Z,37.18
2019-05-20T07:28:33.592Z,37.37
2019-05-20T07:29:33.595Z,36.77
2019-05-20T07:30:33.597Z,36.02
2019-05-20T07:31:33.590Z,34.99
2019-05-20T07:32:33.550Z,33.29
2019-05-20T07:33:33.550Z,32.97
2019-05-20T07:34:33.526Z,32.87
2019-05-20T07:35:33.510Z,33.41
2019-05-20T07:36:33.524Z,34.16
2019-05-20T07:37:33.506Z,35.28
2019-05-20T07:38:33.489Z,35.81
2019-05-20T07:39:33.479Z,36.40
2019-05-20T07:40:33.495Z,34.91
2019-05-20T07:41:33.459Z,36.18
2019-05-20T07:42:33.465Z,36.05
2019-05-20T07:43:33.433Z,35.17
2019-05-20T07:44:33.438Z,35.17
2019-05-20T07:45:33.692Z,34.39
2019-05-20T07:46:33.402Z,35.50
2019-05-20T07:47:33.442Z,37.49
2019-05-20T07:48:33.651Z,38.00
2019-05-20T07:49:33.374Z,37.12
2019-05-20T07:50:33.370Z,37.06
2019-05-20T07:51:33.366Z,35.63
2019-05-20T07:52:33.383Z,34.44
2019-05-20T07:53:33.367Z,33.02
2019-05-20T07:54:33.333Z,33.36
2019-05-20T07:55:33.318Z,31.65
2019-05-20T07:56:33.318Z,29.95
2019-05-20T07:57:33.333Z,30.00
2019-05-20T07:58:33.813Z,29.47
2019-05-20T07:59:33.283Z,28.19
2019-05-20T08:00:33.268Z,28.37
2019-05-20T08:01:33.262Z,28.28
2019-05-20T08:02:33.285Z,27.12
2019-05-20T08:03:33.264Z,27.67
2019-05-20T08:04:33.253Z,27.38
2019-05-20T08:05:33.228Z,27.26
2019-05-20T08:06:33.214Z,26.37
2019-05-20T08:07:50.675Z,25.98
2019-05-20T08:08:34.228Z,26.17
2019-05-20T08:09:33.201Z,25.29
2019-05-20T08:10:33.182Z,25.09
2019-05-20T08:11:33.187Z,25.28
2019-05-20T08:12:33.202Z,25.67
2019-05-20T08:13:33.159Z,24.73
2019-05-20T08:14:33.142Z,25.63
2019-05-20T08:15:33.132Z,25.76
2019-05-20T08:16:33.143Z,25.78
2019-05-20T08:17:33.152Z,26.26
2019-05-20T08:18:33.108Z,26.35
2019-05-20T08:19:33.100Z,27.33
2019-05-20T08:20:33.103Z,26.25
2019-05-20T08:21:33.082Z,25.73
2019-05-20T08:22:33.099Z,25.42
2019-05-20T08:23:33.081Z,25.02
2019-05-20T08:24:33.081Z,24.13
2019-05-20T08:25:33.049Z,24.10
2019-05-20T08:26:33.113Z,23.82
2019-05-20T08:27:33.072Z,23.32
2019-05-20T08:28:33.021Z,22.84
2019-05-20T08:29:33.012Z,23.12
2019-05-20T08:30:33.025Z,23.58
2019-05-20T08:31:33.013Z,23.19
2019-05-20T08:32:33.027Z,23.18
2019-05-20T08:33:32.981Z,21.73
2019-05-20T08:34:33.454Z,23.10
2019-05-20T08:35:32.970Z,23.00
2019-05-20T08:36:32.973Z,22.61
2019-05-20T08:37:44.967Z,22.69
2019-05-20T08:38:33.940Z,23.21
2019-05-20T08:39:32.945Z,22.33
2019-05-20T08:40:32.930Z,22.98
2019-05-20T08:41:32.932Z,21.54
2019-05-20T08:42:32.939Z,22.11
2019-05-20T08:43:32.961Z,22.99
2019-05-20T08:44:32.970Z,22.69
2019-05-20T08:45:32.897Z,22.69
2019-05-20T08:46:32.890Z,21.54
2019-05-20T08:47:33.088Z,21.81
2019-05-20T08:48:32.880Z,21.81
2019-05-20T08:49:32.936Z,21.41
2019-05-20T08:50:32.856Z,21.41
2019-05-20T08:51:32.846Z,21.42
2019-05-20T08:52:32.867Z,21.41
2019-05-20T08:53:32.831Z,21.51
2019-05-20T08:54:32.829Z,21.51
2019-05-20T08:55:32.842Z,21.51
2019-05-20T08:56:32.863Z,22.01
2019-05-20T08:57:32.873Z,22.87
2019-05-20T08:58:32.797Z,22.22
2019-05-20T08:59:32.794Z,21.97
2019-05-20T09:00:32.816Z,22.17
2019-05-20T09:01:32.774Z,21.61
2019-05-20T09:02:32.803Z,21.80
2019-05-20T09:03:32.784Z,22.27
2019-05-20T09:04:32.758Z,21.98
2019-05-20T09:05:32.747Z,22.15
2019-05-20T09:06:32.746Z,21.74
2019-05-20T09:07:32.780Z,19.92
2019-05-20T09:08:32.725Z,20.09
2019-05-20T09:09:32.801Z,19.80
2019-05-20T09:10:32.705Z,20.10
2019-05-20T09:11:32.699Z,20.98
2019-05-20T09:12:32.713Z,20.70
2019-05-20T09:13:32.683Z,20.39
2019-05-20T09:14:32.696Z,21.86
2019-05-20T09:15:32.877Z,21.71
2019-05-20T09:16:32.667Z,23.26
2019-05-20T09:17:32.785Z,23.16
2019-05-20T09:18:32.765Z,23.37
2019-05-20T09:19:32.643Z,21.51
2019-05-20T09:20:32.644Z,21.86
2019-05-20T09:21:32.634Z,21.15
2019-05-20T09:22:32.634Z,20.68
2019-05-20T09:23:32.686Z,20.55
2019-05-20T09:24:32.674Z,19.68
2019-05-20T09:25:32.601Z,20.17
2019-05-20T09:26:32.611Z,19.78
2019-05-20T09:27:32.593Z,19.56
2019-05-20T09:28:32.625Z,19.06
2019-05-20T09:29:32.580Z,18.77
2019-05-20T09:30:32.566Z,19.43
2019-05-20T09:31:32.565Z,18.85
2019-05-20T09:32:32.566Z,18.94
2019-05-20T09:33:32.573Z,17.97
2019-05-20T09:34:32.548Z,18.44
2019-05-20T09:35:32.538Z,18.05
2019-05-20T09:36:32.527Z,17.97
2019-05-20T09:37:32.522Z,18.64
2019-05-20T09:38:32.554Z,17.71
2019-05-20T09:39:32.524Z,18.30
2019-05-20T09:40:32.558Z,18.24
2019-05-20T09:41:32.526Z,20.12
2019-05-20T09:42:32.497Z,19.38
2019-05-20T09:43:32.538Z,21.04
2019-05-20T09:44:32.491Z,21.62
2019-05-20T09:45:32.471Z,21.22
2019-05-20T09:46:32.473Z,20.34
2019-05-20T09:47:32.469Z,19.92
2019-05-20T09:48:32.502Z,19.33
2019-05-20T09:49:32.451Z,19.89
2019-05-20T09:50:32.463Z,19.48
2019-05-20T09:51:32.432Z,18.70
2019-05-20T09:52:32.430Z,18.77
2019-05-20T09:53:32.484Z,18.11
2019-05-20T09:54:32.409Z,18.71
2019-05-20T09:55:32.433Z,18.62
2019-05-20T09:56:32.411Z,19.02
2019-05-20T09:57:32.392Z,19.42
2019-05-20T09:58:32.440Z,19.23
2019-05-20T09:59:42.623Z,18.76
2019-05-20T10:00:33.379Z,19.32
2019-05-20T10:01:32.419Z,19.70
2019-05-20T10:02:37.354Z,19.12
2019-05-20T10:03:33.372Z,19.20
2019-05-20T10:04:32.350Z,18.73
2019-05-20T10:05:32.339Z,19.31
2019-05-20T10:06:32.337Z,19.62
2019-05-20T10:07:32.338Z,20.02
2019-05-20T10:08:37.918Z,19.54
2019-05-20T10:09:33.312Z,19.51
2019-05-20T10:10:32.321Z,18.44
2019-05-20T10:11:32.304Z,18.27
2019-05-20T10:12:45.570Z,18.94
2019-05-20T10:13:33.339Z,18.85
2019-05-20T10:14:32.280Z,19.74
2019-05-20T10:15:32.275Z,20.37
2019-05-20T10:16:32.267Z,21.35
2019-05-20T10:17:32.261Z,21.94
2019-05-20T10:18:37.503Z,22.13
2019-05-20T10:19:33.253Z,21.53
2019-05-20T10:20:32.247Z,20.08
2019-05-20T10:21:32.241Z,21.85
2019-05-20T10:22:32.226Z,23.16
2019-05-20T10:23:32.266Z,23.59
2019-05-20T10:24:32.216Z,24.68
2019-05-20T10:25:32.209Z,25.12
2019-05-20T10:26:32.194Z,26.53
2019-05-20T10:27:32.185Z,27.34
2019-05-20T10:28:32.205Z,28.32
2019-05-20T10:29:32.170Z,28.30
2019-05-20T10:30:32.166Z,28.20
2019-05-20T10:31:32.168Z,28.80
2019-05-20T10:32:32.148Z,28.80
2019-05-20T10:33:32.161Z,29.32
2019-05-20T10:34:32.125Z,29.53
2019-05-20T10:35:32.119Z,29.52
2019-05-20T10:36:32.109Z,28.55
2019-05-20T10:37:32.100Z,29.24
2019-05-20T10:38:32.144Z,29.27
2019-05-20T10:39:32.118Z,31.07
2019-05-20T10:40:32.070Z,30.80
2019-05-20T10:41:32.061Z,31.68
2019-05-20T10:42:32.059Z,32.39
2019-05-20T10:43:32.070Z,31.71
2019-05-20T10:44:32.072Z,31.65
2019-05-20T10:45:32.031Z,32.06
2019-05-20T10:46:32.018Z,32.64
2019-05-20T10:47:32.005Z,33.02
2019-05-20T10:48:31.997Z,32.35
2019-05-20T10:49:32.024Z,32.34
2019-05-20T10:50:31.984Z,32.53
2019-05-20T10:51:31.974Z,33.84
2019-05-20T10:52:31.990Z,33.43
2019-05-20T10:53:31.954Z,33.23
2019-05-20T10:54:31.988Z,33.04
2019-05-20T10:55:32.004Z,33.80
2019-05-20T10:56:31.922Z,33.33
2019-05-20T10:57:31.913Z,33.44
2019-05-20T10:58:40.968Z,33.23
2019-05-20T10:59:31.918Z,33.23
2019-05-20T11:00:31.885Z,33.54
2019-05-20T11:01:31.879Z,33.54
2019-05-20T11:02:31.871Z,34.13
2019-05-20T11:03:31.853Z,34.28
2019-05-20T11:04:35.326Z,34.78
2019-05-20T11:05:31.841Z,35.49
2019-05-20T11:06:31.818Z,35.88
2019-05-20T11:07:31.809Z,35.90
2019-05-20T11:08:31.806Z,36.02
2019-05-20T11:09:31.827Z,36.80
2019-05-20T11:10:31.779Z,36.92
2019-05-20T11:11:31.774Z,37.12
2019-05-20T11:12:31.781Z,36.65
2019-05-20T11:13:31.791Z,37.04
2019-05-20T11:14:31.770Z,37.04
2019-05-20T11:15:31.731Z,36.96
2019-05-20T11:16:31.719Z,37.74
2019-05-20T11:17:31.705Z,37.47
2019-05-20T11:18:31.698Z,38.16
2019-05-20T11:19:31.722Z,38.65
2019-05-20T11:20:31.680Z,38.45
2019-05-20T11:21:31.678Z,37.98
2019-05-20T11:22:31.659Z,38.67
2019-05-20T11:23:31.651Z,38.28
2019-05-20T11:24:31.657Z,38.10
2019-05-20T11:25:31.633Z,39.28
2019-05-20T11:26:31.621Z,39.50
2019-05-20T11:27:31.609Z,39.30
2019-05-20T11:28:31.634Z,39.50
2019-05-20T11:29:31.618Z,40.50
2019-05-20T11:30:31.582Z,40.11
2019-05-20T11:31:31.564Z,39.22
2019-05-20T11:32:31.558Z,40.23
2019-05-20T11:33:31.546Z,39.56
2019-05-20T11:34:31.601Z,39.95
2019-05-20T11:35:31.534Z,40.86
2019-05-20T11:36:31.507Z,41.06
2019-05-20T11:37:31.501Z,40.96
2019-05-20T11:38:31.560Z,41.65
2019-05-20T11:39:34.014Z,40.96
2019-05-20T11:40:31.472Z,41.46
2019-05-20T11:41:52.289Z,40.55
2019-05-20T11:42:32.448Z,40.45
2019-05-20T11:43:31.473Z,40.25
2019-05-20T11:44:31.453Z,40.47
2019-05-20T11:45:31.423Z,40.94
2019-05-20T11:46:31.410Z,41.63
2019-05-20T11:47:31.423Z,41.31
2019-05-20T11:48:31.390Z,41.71
2019-05-20T11:49:31.422Z,41.12
2019-05-20T11:50:31.471Z,40.72
2019-05-20T11:51:31.356Z,41.20
2019-05-20T11:52:31.365Z,40.90
2019-05-20T11:53:31.340Z,40.23
2019-05-20T11:54:31.378Z,40.42
2019-05-20T11:55:31.455Z,40.13
2019-05-20T11:56:31.300Z,39.64
2019-05-20T11:57:31.305Z,39.75
2019-05-20T11:58:31.293Z,40.15
2019-05-20T11:59:31.277Z,40.64
2019-05-20T12:00:31.327Z,40.45
2019-05-20T12:01:31.248Z,40.94
2019-05-20T12:02:31.325Z,40.94
2019-05-20T12:03:31.254Z,41.73
2019-05-20T12:04:31.225Z,40.94
2019-05-20T12:05:31.243Z,41.73
2019-05-20T12:06:31.231Z,41.65
2019-05-20T12:07:31.191Z,41.85
2019-05-20T12:08:31.178Z,41.97
2019-05-20T12:09:46.601Z,42.36
2019-05-20T12:10:32.202Z,43.16
2019-05-20T12:11:31.147Z,42.86
2019-05-20T12:12:31.163Z,43.46
2019-05-20T12:13:31.149Z,43.95
2019-05-20T12:14:31.121Z,43.16
2019-05-20T12:15:31.140Z,43.46
2019-05-20T12:16:31.176Z,43.43
2019-05-20T12:17:31.116Z,42.74
2019-05-20T12:18:31.084Z,42.66
2019-05-20T12:19:31.072Z,42.64
2019-05-20T12:20:31.100Z,42.76
2019-05-20T12:21:31.051Z,42.86
2019-05-20T12:22:31.034Z,42.86
2019-05-20T12:23:31.022Z,43.46
2019-05-20T12:24:31.025Z,43.16
2019-05-20T12:25:31.054Z,44.17
2019-05-20T12:26:31.000Z,45.75
2019-05-20T12:27:30.987Z,44.37
2019-05-20T12:28:30.975Z,44.07
2019-05-20T12:29:30.966Z,44.07
2019-05-20T12:30:30.996Z,43.77
2019-05-20T12:31:30.947Z,44.76
2019-05-20T12:32:31.168Z,44.76
2019-05-20T12:33:30.918Z,43.18
2019-05-20T12:34:30.916Z,44.37
2019-05-20T12:35:30.952Z,43.95
2019-05-20T12:36:30.895Z,43.55
2019-05-20T12:37:30.885Z,44.64
2019-05-20T12:38:30.881Z,43.35
2019-05-20T12:39:30.946Z,43.67
2019-05-20T12:40:30.880Z,44.96
2019-05-20T12:41:31.094Z,44.94
2019-05-20T12:42:30.823Z,44.45
2019-05-20T12:43:30.815Z,43.18
2019-05-20T12:44:30.807Z,45.04
2019-05-20T12:45:30.831Z,45.45
2019-05-20T12:46:30.805Z,44.56
2019-05-20T12:47:30.829Z,44.67
2019-05-20T12:48:30.768Z,44.76
2019-05-20T12:49:30.939Z,45.18
2019-05-20T12:50:30.765Z,44.78
2019-05-20T12:51:30.733Z,47.26
2019-05-20T12:52:30.722Z,46.57